sensor_id;sensor_type;location;lat;lon;timestamp;P1;P2;P0
56688;PMS5003;42565;53.342;-1.534;2024-02-23T00:00:08;3;3;
56688;PMS5003;42565;53.342;-1.534;2024-02-23T00:02:35;1;1;
56688;PMS5003;42565;53.342;-1.534;2024-02-23T00:05:02;2;1;
56688;PMS5003;42565;53.342;-1.534;2024-02-23T00:07:29;2;1;
56688;PMS5003;42565;53.342;-1.534;2024-02-23T00:09:56;2;2;
56688;PMS5003;42565;53.342;-1.534;2024-02-23T00:12:23;2;1;
56688;PMS5003;42565;53.342;-1.534;2024-02-23T00:14:50;2;1;
56688;PMS5003;42565;53.342;-1.534;2024-02-23T00:17:18;2;1;
56688;PMS5003;42565;53.342;-1.534;2024-02-23T00:19:45;2;1;
56688;PMS5003;42565;53.342;-1.534;2024-02-23T00:22:12;0;0;
56688;PMS5003;42565;53.342;-1.534;2024-02-23T00:24:39;1;1;
56688;PMS5003;42565;53.342;-1.534;2024-02-23T00:27:06;1;1;
56688;PMS5003;42565;53.342;-1.534;2024-02-23T00:29:34;4;3;
56688;PMS5003;42565;53.342;-1.534;2024-02-23T00:32:01;0;0;
56688;PMS5003;42565;53.342;-1.534;2024-02-23T00:34:27;1;1;
56688;PMS5003;42565;53.342;-1.534;2024-02-23T00:36:54;2;2;
56688;PMS5003;42565;53.342;-1.534;2024-02-23T00:39:21;1;1;
56688;PMS5003;42565;53.342;-1.534;2024-02-23T00:41:48;3;2;
56688;PMS5003;42565;53.342;-1.534;2024-02-23T00:44:15;0;0;
56688;PMS5003;42565;53.342;-1.534;2024-02-23T00:46:41;1;1;
56688;PMS5003;42565;53.342;-1.534;2024-02-23T00:49:08;1;1;
56688;PMS5003;42565;53.342;-1.534;2024-02-23T00:51:35;1;1;
56688;PMS5003;42565;53.342;-1.534;2024-02-23T00:54:02;0;0;
56688;PMS5003;42565;53.342;-1.534;2024-02-23T00:56:29;1;0;
56688;PMS5003;42565;53.342;-1.534;2024-02-23T00:58:56;1;1;
56688;PMS5003;42565;53.342;-1.534;2024-02-23T01:01:23;1;1;
56688;PMS5003;42565;53.342;-1.534;2024-02-23T01:03:50;0;0;
56688;PMS5003;42565;53.342;-1.534;2024-02-23T01:06:16;1;1;
56688;PMS5003;42565;53.342;-1.534;2024-02-23T01:08:43;0;0;
56688;PMS5003;42565;53.342;-1.534;2024-02-23T01:11:10;2;0;
56688;PMS5003;42565;53.342;-1.534;2024-02-23T01:13:38;0;0;
56688;PMS5003;42565;53.342;-1.534;2024-02-23T01:16:05;1;0;
56688;PMS5003;42565;53.342;-1.534;2024-02-23T01:18:32;1;1;
56688;PMS5003;42565;53.342;-1.534;2024-02-23T01:21:00;0;0;
56688;PMS5003;42565;53.342;-1.534;2024-02-23T01:23:26;1;1;
56688;PMS5003;42565;53.342;-1.534;2024-02-23T01:25:53;1;1;
56688;PMS5003;42565;53.342;-1.534;2024-02-23T01:28:20;1;1;
56688;PMS5003;42565;53.342;-1.534;2024-02-23T01:30:47;2;2;
56688;PMS5003;42565;53.342;-1.534;2024-02-23T01:33:14;2;1;
56688;PMS5003;42565;53.342;-1.534;2024-02-23T01:35:40;2;1;
56688;PMS5003;42565;53.342;-1.534;2024-02-23T01:38:07;1;1;
56688;PMS5003;42565;53.342;-1.534;2024-02-23T01:40:34;2;1;
56688;PMS5003;42565;53.342;-1.534;2024-02-23T01:43:02;1;1;
56688;PMS5003;42565;53.342;-1.534;2024-02-23T01:45:30;2;0;
56688;PMS5003;42565;53.342;-1.534;2024-02-23T01:47:58;1;1;
56688;PMS5003;42565;53.342;-1.534;2024-02-23T01:50:27;3;3;
56688;PMS5003;42565;53.342;-1.534;2024-02-23T01:52:57;4;2;
56688;PMS5003;42565;53.342;-1.534;2024-02-23T01:55:27;3;3;
56688;PMS5003;42565;53.342;-1.534;2024-02-23T01:57:54;1;1;
56688;PMS5003;42565;53.342;-1.534;2024-02-23T02:00:22;2;2;
56688;PMS5003;42565;53.342;-1.534;2024-02-23T02:02:49;2;2;
56688;PMS5003;42565;53.342;-1.534;2024-02-23T02:05:16;1;1;
56688;PMS5003;42565;53.342;-1.534;2024-02-23T02:07:43;4;2;
56688;PMS5003;42565;53.342;-1.534;2024-02-23T02:10:13;2;2;
56688;PMS5003;42565;53.342;-1.534;2024-02-23T02:12:39;1;1;
56688;PMS5003;42565;53.342;-1.534;2024-02-23T02:15:06;2;1;
56688;PMS5003;42565;53.342;-1.534;2024-02-23T02:17:34;4;3;
56688;PMS5003;42565;53.342;-1.534;2024-02-23T02:20:02;2;2;
56688;PMS5003;42565;53.342;-1.534;2024-02-23T02:22:31;3;3;
56688;PMS5003;42565;53.342;-1.534;2024-02-23T02:24:59;3;1;
56688;PMS5003;42565;53.342;-1.534;2024-02-23T02:27:26;1;1;
56688;PMS5003;42565;53.342;-1.534;2024-02-23T02:29:53;2;2;
56688;PMS5003;42565;53.342;-1.534;2024-02-23T02:32:20;2;1;
56688;PMS5003;42565;53.342;-1.534;2024-02-23T02:34:47;2;2;
56688;PMS5003;42565;53.342;-1.534;2024-02-23T02:37:13;3;3;
56688;PMS5003;42565;53.342;-1.534;2024-02-23T02:39:40;2;2;
56688;PMS5003;42565;53.342;-1.534;2024-02-23T02:42:07;2;2;
56688;PMS5003;42565;53.342;-1.534;2024-02-23T02:44:35;4;4;
56688;PMS5003;42565;53.342;-1.534;2024-02-23T02:47:02;4;4;
56688;PMS5003;42565;53.342;-1.534;2024-02-23T02:49:30;4;4;
56688;PMS5003;42565;53.342;-1.534;2024-02-23T02:51:57;4;3;
56688;PMS5003;42565;53.342;-1.534;2024-02-23T02:54:23;3;2;
56688;PMS5003;42565;53.342;-1.534;2024-02-23T02:56:50;2;1;
56688;PMS5003;42565;53.342;-1.534;2024-02-23T02:59:18;2;1;
56688;PMS5003;42565;53.342;-1.534;2024-02-23T03:01:45;2;1;
56688;PMS5003;42565;53.342;-1.534;2024-02-23T03:04:12;2;2;
56688;PMS5003;42565;53.342;-1.534;2024-02-23T03:06:39;2;2;
56688;PMS5003;42565;53.342;-1.534;2024-02-23T03:09:07;4;3;
56688;PMS5003;42565;53.342;-1.534;2024-02-23T03:11:35;2;2;
56688;PMS5003;42565;53.342;-1.534;2024-02-23T03:15:19;1;1;
56688;PMS5003;42565;53.342;-1.534;2024-02-23T03:17:47;4;3;
56688;PMS5003;42565;53.342;-1.534;2024-02-23T03:20:15;3;3;
56688;PMS5003;42565;53.342;-1.534;2024-02-23T03:22:43;4;3;
56688;PMS5003;42565;53.342;-1.534;2024-02-23T03:25:10;2;2;
56688;PMS5003;42565;53.342;-1.534;2024-02-23T03:27:37;4;2;
56688;PMS5003;42565;53.342;-1.534;2024-02-23T03:30:04;2;2;
56688;PMS5003;42565;53.342;-1.534;2024-02-23T03:32:33;4;3;
56688;PMS5003;42565;53.342;-1.534;2024-02-23T03:35:00;3;3;
56688;PMS5003;42565;53.342;-1.534;2024-02-23T03:37:27;3;3;
56688;PMS5003;42565;53.342;-1.534;2024-02-23T03:39:54;3;2;
56688;PMS5003;42565;53.342;-1.534;2024-02-23T03:42:21;1;1;
56688;PMS5003;42565;53.342;-1.534;2024-02-23T03:44:47;5;2;
56688;PMS5003;42565;53.342;-1.534;2024-02-23T03:47:14;2;2;
56688;PMS5003;42565;53.342;-1.534;2024-02-23T03:49:42;2;2;
56688;PMS5003;42565;53.342;-1.534;2024-02-23T03:52:08;2;2;
56688;PMS5003;42565;53.342;-1.534;2024-02-23T03:54:35;1;1;
56688;PMS5003;42565;53.342;-1.534;2024-02-23T03:57:03;2;2;
56688;PMS5003;42565;53.342;-1.534;2024-02-23T03:59:30;3;3;
56688;PMS5003;42565;53.342;-1.534;2024-02-23T04:01:57;3;2;
56688;PMS5003;42565;53.342;-1.534;2024-02-23T04:04:29;1;1;
56688;PMS5003;42565;53.342;-1.534;2024-02-23T04:06:56;0;0;
56688;PMS5003;42565;53.342;-1.534;2024-02-23T04:09:45;3;2;
56688;PMS5003;42565;53.342;-1.534;2024-02-23T04:12:13;1;1;
56688;PMS5003;42565;53.342;-1.534;2024-02-23T04:14:41;2;2;
56688;PMS5003;42565;53.342;-1.534;2024-02-23T04:17:08;3;2;
56688;PMS5003;42565;53.342;-1.534;2024-02-23T04:19:35;4;3;
56688;PMS5003;42565;53.342;-1.534;2024-02-23T04:22:03;2;2;
56688;PMS5003;42565;53.342;-1.534;2024-02-23T04:24:32;2;1;
56688;PMS5003;42565;53.342;-1.534;2024-02-23T04:26:59;2;1;
56688;PMS5003;42565;53.342;-1.534;2024-02-23T04:29:26;4;3;
56688;PMS5003;42565;53.342;-1.534;2024-02-23T04:31:54;1;1;
56688;PMS5003;42565;53.342;-1.534;2024-02-23T04:34:21;3;2;
56688;PMS5003;42565;53.342;-1.534;2024-02-23T04:36:48;4;3;
56688;PMS5003;42565;53.342;-1.534;2024-02-23T04:39:15;3;3;
56688;PMS5003;42565;53.342;-1.534;2024-02-23T04:41:42;2;2;
56688;PMS5003;42565;53.342;-1.534;2024-02-23T04:44:08;3;2;
56688;PMS5003;42565;53.342;-1.534;2024-02-23T04:46:35;3;2;
56688;PMS5003;42565;53.342;-1.534;2024-02-23T04:49:03;3;3;
56688;PMS5003;42565;53.342;-1.534;2024-02-23T04:51:31;2;2;
56688;PMS5003;42565;53.342;-1.534;2024-02-23T04:53:58;2;2;
56688;PMS5003;42565;53.342;-1.534;2024-02-23T04:56:25;2;2;
56688;PMS5003;42565;53.342;-1.534;2024-02-23T04:58:52;3;2;
56688;PMS5003;42565;53.342;-1.534;2024-02-23T05:01:18;3;3;
56688;PMS5003;42565;53.342;-1.534;2024-02-23T05:03:45;2;2;
56688;PMS5003;42565;53.342;-1.534;2024-02-23T05:06:13;4;3;
56688;PMS5003;42565;53.342;-1.534;2024-02-23T05:08:40;2;1;
56688;PMS5003;42565;53.342;-1.534;2024-02-23T05:11:06;2;2;
56688;PMS5003;42565;53.342;-1.534;2024-02-23T05:13:33;3;2;
56688;PMS5003;42565;53.342;-1.534;2024-02-23T05:16:01;3;2;
56688;PMS5003;42565;53.342;-1.534;2024-02-23T05:18:29;2;2;
56688;PMS5003;42565;53.342;-1.534;2024-02-23T05:20:56;3;3;
56688;PMS5003;42565;53.342;-1.534;2024-02-23T05:23:24;3;3;
56688;PMS5003;42565;53.342;-1.534;2024-02-23T05:25:50;1;1;
56688;PMS5003;42565;53.342;-1.534;2024-02-23T05:28:17;3;3;
56688;PMS5003;42565;53.342;-1.534;2024-02-23T05:30:44;2;2;
56688;PMS5003;42565;53.342;-1.534;2024-02-23T05:33:11;1;1;
56688;PMS5003;42565;53.342;-1.534;2024-02-23T05:35:37;2;2;
56688;PMS5003;42565;53.342;-1.534;2024-02-23T05:38:04;2;2;
56688;PMS5003;42565;53.342;-1.534;2024-02-23T05:40:31;4;3;
56688;PMS5003;42565;53.342;-1.534;2024-02-23T05:42:58;2;2;
56688;PMS5003;42565;53.342;-1.534;2024-02-23T05:45:25;3;3;
56688;PMS5003;42565;53.342;-1.534;2024-02-23T05:47:52;2;2;
56688;PMS5003;42565;53.342;-1.534;2024-02-23T05:50:19;2;2;
56688;PMS5003;42565;53.342;-1.534;2024-02-23T05:52:46;3;3;
56688;PMS5003;42565;53.342;-1.534;2024-02-23T05:55:13;2;2;
56688;PMS5003;42565;53.342;-1.534;2024-02-23T05:57:41;2;2;
56688;PMS5003;42565;53.342;-1.534;2024-02-23T06:00:08;3;3;
56688;PMS5003;42565;53.342;-1.534;2024-02-23T06:02:36;2;2;
56688;PMS5003;42565;53.342;-1.534;2024-02-23T06:05:04;3;3;
56688;PMS5003;42565;53.342;-1.534;2024-02-23T06:07:31;3;3;
56688;PMS5003;42565;53.342;-1.534;2024-02-23T06:09:58;3;3;
56688;PMS5003;42565;53.342;-1.534;2024-02-23T06:12:25;5;4;
56688;PMS5003;42565;53.342;-1.534;2024-02-23T06:14:52;3;3;
56688;PMS5003;42565;53.342;-1.534;2024-02-23T06:17:19;2;2;
56688;PMS5003;42565;53.342;-1.534;2024-02-23T06:19:46;2;2;
56688;PMS5003;42565;53.342;-1.534;2024-02-23T06:22:13;2;2;
56688;PMS5003;42565;53.342;-1.534;2024-02-23T06:24:40;3;3;
56688;PMS5003;42565;53.342;-1.534;2024-02-23T06:27:07;2;2;
56688;PMS5003;42565;53.342;-1.534;2024-02-23T06:29:35;3;3;
56688;PMS5003;42565;53.342;-1.534;2024-02-23T06:32:03;2;2;
56688;PMS5003;42565;53.342;-1.534;2024-02-23T06:34:30;3;3;
56688;PMS5003;42565;53.342;-1.534;2024-02-23T06:36:58;3;3;
56688;PMS5003;42565;53.342;-1.534;2024-02-23T06:39:25;2;2;
56688;PMS5003;42565;53.342;-1.534;2024-02-23T06:41:52;3;3;
56688;PMS5003;42565;53.342;-1.534;2024-02-23T06:44:20;3;3;
56688;PMS5003;42565;53.342;-1.534;2024-02-23T06:46:47;3;3;
56688;PMS5003;42565;53.342;-1.534;2024-02-23T06:49:13;4;4;
56688;PMS5003;42565;53.342;-1.534;2024-02-23T06:51:41;5;4;
56688;PMS5003;42565;53.342;-1.534;2024-02-23T06:54:09;3;3;
56688;PMS5003;42565;53.342;-1.534;2024-02-23T06:56:36;4;4;
56688;PMS5003;42565;53.342;-1.534;2024-02-23T06:59:03;5;5;
56688;PMS5003;42565;53.342;-1.534;2024-02-23T07:01:31;5;5;
56688;PMS5003;42565;53.342;-1.534;2024-02-23T07:03:57;5;5;
56688;PMS5003;42565;53.342;-1.534;2024-02-23T07:06:24;6;6;
56688;PMS5003;42565;53.342;-1.534;2024-02-23T07:08:52;5;5;
56688;PMS5003;42565;53.342;-1.534;2024-02-23T07:11:20;5;5;
56688;PMS5003;42565;53.342;-1.534;2024-02-23T07:13:46;7;7;
56688;PMS5003;42565;53.342;-1.534;2024-02-23T07:16:14;4;4;
56688;PMS5003;42565;53.342;-1.534;2024-02-23T07:18:41;6;5;
56688;PMS5003;42565;53.342;-1.534;2024-02-23T07:21:08;6;6;
56688;PMS5003;42565;53.342;-1.534;2024-02-23T07:23:35;6;6;
56688;PMS5003;42565;53.342;-1.534;2024-02-23T07:26:03;4;4;
56688;PMS5003;42565;53.342;-1.534;2024-02-23T07:28:30;5;4;
56688;PMS5003;42565;53.342;-1.534;2024-02-23T07:30:57;7;6;
56688;PMS5003;42565;53.342;-1.534;2024-02-23T07:33:24;5;4;
56688;PMS5003;42565;53.342;-1.534;2024-02-23T07:35:50;4;4;
56688;PMS5003;42565;53.342;-1.534;2024-02-23T07:38:18;4;4;
56688;PMS5003;42565;53.342;-1.534;2024-02-23T07:40:46;6;6;
56688;PMS5003;42565;53.342;-1.534;2024-02-23T07:43:12;5;5;
56688;PMS5003;42565;53.342;-1.534;2024-02-23T07:45:39;7;7;
56688;PMS5003;42565;53.342;-1.534;2024-02-23T07:48:07;6;6;
56688;PMS5003;42565;53.342;-1.534;2024-02-23T07:50:35;6;6;
56688;PMS5003;42565;53.342;-1.534;2024-02-23T07:53:02;5;5;
56688;PMS5003;42565;53.342;-1.534;2024-02-23T07:55:30;6;5;
56688;PMS5003;42565;53.342;-1.534;2024-02-23T07:57:56;5;5;
56688;PMS5003;42565;53.342;-1.534;2024-02-23T08:00:23;4;4;
56688;PMS5003;42565;53.342;-1.534;2024-02-23T08:02:51;5;5;
56688;PMS5003;42565;53.342;-1.534;2024-02-23T08:05:17;6;6;
56688;PMS5003;42565;53.342;-1.534;2024-02-23T08:07:44;6;4;
56688;PMS5003;42565;53.342;-1.534;2024-02-23T08:10:12;6;5;
56688;PMS5003;42565;53.342;-1.534;2024-02-23T08:12:39;4;4;
56688;PMS5003;42565;53.342;-1.534;2024-02-23T08:15:06;5;5;
56688;PMS5003;42565;53.342;-1.534;2024-02-23T08:17:34;5;5;
56688;PMS5003;42565;53.342;-1.534;2024-02-23T08:20:01;6;6;
56688;PMS5003;42565;53.342;-1.534;2024-02-23T08:22:29;6;5;
56688;PMS5003;42565;53.342;-1.534;2024-02-23T08:24:56;5;5;
56688;PMS5003;42565;53.342;-1.534;2024-02-23T08:27:23;5;4;
56688;PMS5003;42565;53.342;-1.534;2024-02-23T08:29:49;6;5;
56688;PMS5003;42565;53.342;-1.534;2024-02-23T08:32:16;5;5;
56688;PMS5003;42565;53.342;-1.534;2024-02-23T08:34:43;6;6;
56688;PMS5003;42565;53.342;-1.534;2024-02-23T08:37:10;7;7;
56688;PMS5003;42565;53.342;-1.534;2024-02-23T08:39:36;6;6;
56688;PMS5003;42565;53.342;-1.534;2024-02-23T08:42:03;6;6;
56688;PMS5003;42565;53.342;-1.534;2024-02-23T08:44:31;4;4;
56688;PMS5003;42565;53.342;-1.534;2024-02-23T08:46:57;4;4;
56688;PMS5003;42565;53.342;-1.534;2024-02-23T08:49:24;5;5;
56688;PMS5003;42565;53.342;-1.534;2024-02-23T08:51:51;3;3;
56688;PMS5003;42565;53.342;-1.534;2024-02-23T08:54:18;4;3;
56688;PMS5003;42565;53.342;-1.534;2024-02-23T08:56:45;3;3;
56688;PMS5003;42565;53.342;-1.534;2024-02-23T08:59:12;5;4;
56688;PMS5003;42565;53.342;-1.534;2024-02-23T09:01:39;3;2;
56688;PMS5003;42565;53.342;-1.534;2024-02-23T09:04:05;2;2;
56688;PMS5003;42565;53.342;-1.534;2024-02-23T09:06:32;2;2;
56688;PMS5003;42565;53.342;-1.534;2024-02-23T09:09:05;3;3;
56688;PMS5003;42565;53.342;-1.534;2024-02-23T09:11:35;1;1;
56688;PMS5003;42565;53.342;-1.534;2024-02-23T09:14:09;2;2;
56688;PMS5003;42565;53.342;-1.534;2024-02-23T09:16:36;3;3;
56688;PMS5003;42565;53.342;-1.534;2024-02-23T09:19:08;2;2;
56688;PMS5003;42565;53.342;-1.534;2024-02-23T09:21:35;1;1;
56688;PMS5003;42565;53.342;-1.534;2024-02-23T09:24:03;0;0;
56688;PMS5003;42565;53.342;-1.534;2024-02-23T09:26:34;3;2;
56688;PMS5003;42565;53.342;-1.534;2024-02-23T09:29:02;2;1;
56688;PMS5003;42565;53.342;-1.534;2024-02-23T09:31:32;2;2;
56688;PMS5003;42565;53.342;-1.534;2024-02-23T09:34:00;3;2;
56688;PMS5003;42565;53.342;-1.534;2024-02-23T09:36:27;3;3;
56688;PMS5003;42565;53.342;-1.534;2024-02-23T09:38:54;3;3;
56688;PMS5003;42565;53.342;-1.534;2024-02-23T09:41:27;4;4;
56688;PMS5003;42565;53.342;-1.534;2024-02-23T09:43:54;2;2;
56688;PMS5003;42565;53.342;-1.534;2024-02-23T09:46:25;3;3;
56688;PMS5003;42565;53.342;-1.534;2024-02-23T09:48:52;4;4;
56688;PMS5003;42565;53.342;-1.534;2024-02-23T09:51:21;3;2;
56688;PMS5003;42565;53.342;-1.534;2024-02-23T09:53:49;6;5;
56688;PMS5003;42565;53.342;-1.534;2024-02-23T09:56:17;5;4;
56688;PMS5003;42565;53.342;-1.534;2024-02-23T09:58:47;5;3;
56688;PMS5003;42565;53.342;-1.534;2024-02-23T10:01:18;3;3;
56688;PMS5003;42565;53.342;-1.534;2024-02-23T10:03:54;3;3;
56688;PMS5003;42565;53.342;-1.534;2024-02-23T10:06:24;3;3;
56688;PMS5003;42565;53.342;-1.534;2024-02-23T10:08:56;4;4;
56688;PMS5003;42565;53.342;-1.534;2024-02-23T10:11:23;4;4;
56688;PMS5003;42565;53.342;-1.534;2024-02-23T10:13:51;3;3;
56688;PMS5003;42565;53.342;-1.534;2024-02-23T10:16:19;5;5;
56688;PMS5003;42565;53.342;-1.534;2024-02-23T10:18:47;4;4;
56688;PMS5003;42565;53.342;-1.534;2024-02-23T10:21:14;3;3;
56688;PMS5003;42565;53.342;-1.534;2024-02-23T10:23:41;4;3;
56688;PMS5003;42565;53.342;-1.534;2024-02-23T10:26:09;5;4;
56688;PMS5003;42565;53.342;-1.534;2024-02-23T10:28:36;4;4;
56688;PMS5003;42565;53.342;-1.534;2024-02-23T10:31:04;4;4;
56688;PMS5003;42565;53.342;-1.534;2024-02-23T10:33:32;4;4;
56688;PMS5003;42565;53.342;-1.534;2024-02-23T10:35:59;2;2;
56688;PMS5003;42565;53.342;-1.534;2024-02-23T10:38:32;2;2;
56688;PMS5003;42565;53.342;-1.534;2024-02-23T10:41:02;3;2;
56688;PMS5003;42565;53.342;-1.534;2024-02-23T10:43:33;3;3;
56688;PMS5003;42565;53.342;-1.534;2024-02-23T10:46:07;3;3;
56688;PMS5003;42565;53.342;-1.534;2024-02-23T10:48:34;4;3;
56688;PMS5003;42565;53.342;-1.534;2024-02-23T10:51:04;3;3;
56688;PMS5003;42565;53.342;-1.534;2024-02-23T10:53:34;2;2;
56688;PMS5003;42565;53.342;-1.534;2024-02-23T10:56:02;4;4;
56688;PMS5003;42565;53.342;-1.534;2024-02-23T10:58:31;3;3;
56688;PMS5003;42565;53.342;-1.534;2024-02-23T11:00:59;4;4;
56688;PMS5003;42565;53.342;-1.534;2024-02-23T11:03:28;3;3;
56688;PMS5003;42565;53.342;-1.534;2024-02-23T11:05:55;3;3;
56688;PMS5003;42565;53.342;-1.534;2024-02-23T11:08:23;5;4;
56688;PMS5003;42565;53.342;-1.534;2024-02-23T11:10:51;2;2;
56688;PMS5003;42565;53.342;-1.534;2024-02-23T11:13:18;3;3;
56688;PMS5003;42565;53.342;-1.534;2024-02-23T11:15:44;5;3;
56688;PMS5003;42565;53.342;-1.534;2024-02-23T11:18:27;3;3;
56688;PMS5003;42565;53.342;-1.534;2024-02-23T11:20:54;3;3;
56688;PMS5003;42565;53.342;-1.534;2024-02-23T11:23:22;5;4;
56688;PMS5003;42565;53.342;-1.534;2024-02-23T11:26:05;5;3;
56688;PMS5003;42565;53.342;-1.534;2024-02-23T11:28:33;1;1;
56688;PMS5003;42565;53.342;-1.534;2024-02-23T11:31:11;1;1;
56688;PMS5003;42565;53.342;-1.534;2024-02-23T11:33:39;1;1;
56688;PMS5003;42565;53.342;-1.534;2024-02-23T11:36:06;1;1;
56688;PMS5003;42565;53.342;-1.534;2024-02-23T11:38:34;2;2;
56688;PMS5003;42565;53.342;-1.534;2024-02-23T11:41:33;1;0;
56688;PMS5003;42565;53.342;-1.534;2024-02-23T11:44:07;3;2;
56688;PMS5003;42565;53.342;-1.534;2024-02-23T11:46:35;2;1;
56688;PMS5003;42565;53.342;-1.534;2024-02-23T11:49:02;1;1;
56688;PMS5003;42565;53.342;-1.534;2024-02-23T11:51:29;2;0;
56688;PMS5003;42565;53.342;-1.534;2024-02-23T11:53:56;2;1;
56688;PMS5003;42565;53.342;-1.534;2024-02-23T11:56:23;0;0;
56688;PMS5003;42565;53.342;-1.534;2024-02-23T11:58:50;1;0;
56688;PMS5003;42565;53.342;-1.534;2024-02-23T12:01:18;2;1;
56688;PMS5003;42565;53.342;-1.534;2024-02-23T12:03:45;2;2;
56688;PMS5003;42565;53.342;-1.534;2024-02-23T12:06:13;3;1;
56688;PMS5003;42565;53.342;-1.534;2024-02-23T12:08:41;1;1;
56688;PMS5003;42565;53.342;-1.534;2024-02-23T12:11:09;1;1;
56688;PMS5003;42565;53.342;-1.534;2024-02-23T12:13:38;1;1;
56688;PMS5003;42565;53.342;-1.534;2024-02-23T12:16:06;2;2;
56688;PMS5003;42565;53.342;-1.534;2024-02-23T12:18:35;1;1;
56688;PMS5003;42565;53.342;-1.534;2024-02-23T12:21:04;0;0;
56688;PMS5003;42565;53.342;-1.534;2024-02-23T12:23:39;1;1;
56688;PMS5003;42565;53.342;-1.534;2024-02-23T12:26:08;0;0;
56688;PMS5003;42565;53.342;-1.534;2024-02-23T12:28:35;0;0;
56688;PMS5003;42565;53.342;-1.534;2024-02-23T12:31:03;0;0;
56688;PMS5003;42565;53.342;-1.534;2024-02-23T12:33:32;1;0;
56688;PMS5003;42565;53.342;-1.534;2024-02-23T12:36:01;1;1;
56688;PMS5003;42565;53.342;-1.534;2024-02-23T12:38:29;0;0;
56688;PMS5003;42565;53.342;-1.534;2024-02-23T12:40:57;1;0;
56688;PMS5003;42565;53.342;-1.534;2024-02-23T12:43:25;2;2;
56688;PMS5003;42565;53.342;-1.534;2024-02-23T12:45:53;2;0;
56688;PMS5003;42565;53.342;-1.534;2024-02-23T12:48:21;0;0;
56688;PMS5003;42565;53.342;-1.534;2024-02-23T12:50:49;2;0;
56688;PMS5003;42565;53.342;-1.534;2024-02-23T12:53:30;1;1;
56688;PMS5003;42565;53.342;-1.534;2024-02-23T12:56:03;1;0;
56688;PMS5003;42565;53.342;-1.534;2024-02-23T12:58:31;0;0;
56688;PMS5003;42565;53.342;-1.534;2024-02-23T13:00:59;0;0;
56688;PMS5003;42565;53.342;-1.534;2024-02-23T13:03:26;0;0;
56688;PMS5003;42565;53.342;-1.534;2024-02-23T13:05:54;2;1;
56688;PMS5003;42565;53.342;-1.534;2024-02-23T13:08:22;0;0;
56688;PMS5003;42565;53.342;-1.534;2024-02-23T13:10:49;0;0;
56688;PMS5003;42565;53.342;-1.534;2024-02-23T13:13:17;0;0;
56688;PMS5003;42565;53.342;-1.534;2024-02-23T13:15:44;1;0;
56688;PMS5003;42565;53.342;-1.534;2024-02-23T13:18:12;0;0;
56688;PMS5003;42565;53.342;-1.534;2024-02-23T13:20:40;0;0;
56688;PMS5003;42565;53.342;-1.534;2024-02-23T13:23:08;1;0;
56688;PMS5003;42565;53.342;-1.534;2024-02-23T13:25:35;0;0;
56688;PMS5003;42565;53.342;-1.534;2024-02-23T13:28:04;1;1;
56688;PMS5003;42565;53.342;-1.534;2024-02-23T13:30:32;0;0;
56688;PMS5003;42565;53.342;-1.534;2024-02-23T13:33:00;1;1;
56688;PMS5003;42565;53.342;-1.534;2024-02-23T13:35:28;1;1;
56688;PMS5003;42565;53.342;-1.534;2024-02-23T13:37:56;2;1;
56688;PMS5003;42565;53.342;-1.534;2024-02-23T13:40:23;1;1;
56688;PMS5003;42565;53.342;-1.534;2024-02-23T13:42:51;1;1;
56688;PMS5003;42565;53.342;-1.534;2024-02-23T13:45:17;1;1;
56688;PMS5003;42565;53.342;-1.534;2024-02-23T13:47:55;0;0;
56688;PMS5003;42565;53.342;-1.534;2024-02-23T13:50:24;1;1;
56688;PMS5003;42565;53.342;-1.534;2024-02-23T13:52:51;1;1;
56688;PMS5003;42565;53.342;-1.534;2024-02-23T13:55:18;1;1;
56688;PMS5003;42565;53.342;-1.534;2024-02-23T13:57:46;0;0;
56688;PMS5003;42565;53.342;-1.534;2024-02-23T14:00:14;1;1;
56688;PMS5003;42565;53.342;-1.534;2024-02-23T14:02:42;1;1;
56688;PMS5003;42565;53.342;-1.534;2024-02-23T14:05:09;0;0;
56688;PMS5003;42565;53.342;-1.534;2024-02-23T14:07:36;1;1;
56688;PMS5003;42565;53.342;-1.534;2024-02-23T14:10:04;1;0;
56688;PMS5003;42565;53.342;-1.534;2024-02-23T14:12:32;1;0;
56688;PMS5003;42565;53.342;-1.534;2024-02-23T14:15:00;1;1;
56688;PMS5003;42565;53.342;-1.534;2024-02-23T14:17:27;2;0;
56688;PMS5003;42565;53.342;-1.534;2024-02-23T14:19:54;1;1;
56688;PMS5003;42565;53.342;-1.534;2024-02-23T14:22:21;0;0;
56688;PMS5003;42565;53.342;-1.534;2024-02-23T14:24:48;0;0;
56688;PMS5003;42565;53.342;-1.534;2024-02-23T14:27:15;0;0;
56688;PMS5003;42565;53.342;-1.534;2024-02-23T14:29:42;2;1;
56688;PMS5003;42565;53.342;-1.534;2024-02-23T14:32:08;1;0;
56688;PMS5003;42565;53.342;-1.534;2024-02-23T14:34:36;0;0;
56688;PMS5003;42565;53.342;-1.534;2024-02-23T14:37:03;0;0;
56688;PMS5003;42565;53.342;-1.534;2024-02-23T14:39:30;1;1;
56688;PMS5003;42565;53.342;-1.534;2024-02-23T14:41:57;1;1;
56688;PMS5003;42565;53.342;-1.534;2024-02-23T14:44:24;1;0;
56688;PMS5003;42565;53.342;-1.534;2024-02-23T14:46:51;0;0;
56688;PMS5003;42565;53.342;-1.534;2024-02-23T14:49:18;2;1;
56688;PMS5003;42565;53.342;-1.534;2024-02-23T14:51:45;2;1;
56688;PMS5003;42565;53.342;-1.534;2024-02-23T14:54:11;1;1;
56688;PMS5003;42565;53.342;-1.534;2024-02-23T14:56:39;1;1;
56688;PMS5003;42565;53.342;-1.534;2024-02-23T14:59:06;2;1;
56688;PMS5003;42565;53.342;-1.534;2024-02-23T15:01:34;1;1;
56688;PMS5003;42565;53.342;-1.534;2024-02-23T15:04:03;2;1;
56688;PMS5003;42565;53.342;-1.534;2024-02-23T15:06:30;0;0;
56688;PMS5003;42565;53.342;-1.534;2024-02-23T15:08:57;2;1;
56688;PMS5003;42565;53.342;-1.534;2024-02-23T15:11:23;1;1;
56688;PMS5003;42565;53.342;-1.534;2024-02-23T15:13:51;1;1;
56688;PMS5003;42565;53.342;-1.534;2024-02-23T15:16:18;1;1;
56688;PMS5003;42565;53.342;-1.534;2024-02-23T15:18:45;2;1;
56688;PMS5003;42565;53.342;-1.534;2024-02-23T15:21:12;2;1;
56688;PMS5003;42565;53.342;-1.534;2024-02-23T15:23:39;1;0;
56688;PMS5003;42565;53.342;-1.534;2024-02-23T15:26:06;1;1;
56688;PMS5003;42565;53.342;-1.534;2024-02-23T15:28:32;1;1;
56688;PMS5003;42565;53.342;-1.534;2024-02-23T15:31:00;1;0;
56688;PMS5003;42565;53.342;-1.534;2024-02-23T15:33:27;0;0;
56688;PMS5003;42565;53.342;-1.534;2024-02-23T15:35:53;0;0;
56688;PMS5003;42565;53.342;-1.534;2024-02-23T15:38:20;0;0;
56688;PMS5003;42565;53.342;-1.534;2024-02-23T15:40:47;2;1;
56688;PMS5003;42565;53.342;-1.534;2024-02-23T15:43:14;0;0;
56688;PMS5003;42565;53.342;-1.534;2024-02-23T15:45:41;0;0;
56688;PMS5003;42565;53.342;-1.534;2024-02-23T15:48:08;0;0;
56688;PMS5003;42565;53.342;-1.534;2024-02-23T15:50:36;1;0;
56688;PMS5003;42565;53.342;-1.534;2024-02-23T15:53:03;1;1;
56688;PMS5003;42565;53.342;-1.534;2024-02-23T15:55:31;1;1;
56688;PMS5003;42565;53.342;-1.534;2024-02-23T15:57:57;0;0;
56688;PMS5003;42565;53.342;-1.534;2024-02-23T16:00:24;0;0;
56688;PMS5003;42565;53.342;-1.534;2024-02-23T16:02:52;0;0;
56688;PMS5003;42565;53.342;-1.534;2024-02-23T16:05:19;1;1;
56688;PMS5003;42565;53.342;-1.534;2024-02-23T16:07:47;1;0;
56688;PMS5003;42565;53.342;-1.534;2024-02-23T16:10:14;1;1;
56688;PMS5003;42565;53.342;-1.534;2024-02-23T16:12:41;1;1;
56688;PMS5003;42565;53.342;-1.534;2024-02-23T16:15:08;0;0;
56688;PMS5003;42565;53.342;-1.534;2024-02-23T16:17:36;0;0;
56688;PMS5003;42565;53.342;-1.534;2024-02-23T16:20:03;1;0;
56688;PMS5003;42565;53.342;-1.534;2024-02-23T16:22:31;1;1;
56688;PMS5003;42565;53.342;-1.534;2024-02-23T16:25:04;1;1;
56688;PMS5003;42565;53.342;-1.534;2024-02-23T16:27:31;1;1;
56688;PMS5003;42565;53.342;-1.534;2024-02-23T16:29:58;0;0;
56688;PMS5003;42565;53.342;-1.534;2024-02-23T16:32:24;3;3;
56688;PMS5003;42565;53.342;-1.534;2024-02-23T16:34:51;1;1;
56688;PMS5003;42565;53.342;-1.534;2024-02-23T16:37:18;2;1;